createdAt,value
2018-07-13T00:00:19.231Z,73.80
2018-07-13T00:01:19.240Z,79.20
2018-07-13T00:02:19.209Z,92.80
2018-07-13T00:03:19.202Z,81.10
2018-07-13T00:04:19.178Z,80.70
2018-07-13T00:05:19.170Z,94.40
2018-07-13T00:06:19.159Z,126.10
2018-07-13T00:07:19.148Z,100.70
2018-07-13T00:08:19.141Z,101.00
2018-07-13T00:09:19.168Z,96.50
2018-07-13T00:10:19.118Z,98.10
2018-07-13T00:11:19.114Z,84.70
2018-07-13T00:12:19.124Z,117.00
2018-07-13T00:13:19.086Z,83.70
2018-07-13T00:14:19.078Z,85.70
2018-07-13T00:15:19.066Z,126.10
2018-07-13T00:16:19.048Z,122.70
2018-07-13T00:17:19.039Z,122.30
2018-07-13T00:18:19.032Z,155.80
2018-07-13T00:19:19.018Z,147.90
2018-07-13T00:20:19.012Z,177.90
2018-07-13T00:21:19.010Z,72.40
2018-07-13T00:22:18.991Z,92.80
2018-07-13T00:23:19.017Z,90.10
2018-07-13T00:24:18.985Z,84.30
2018-07-13T00:25:18.956Z,89.00
2018-07-13T00:26:18.949Z,75.40
2018-07-13T00:27:18.958Z,90.50
2018-07-13T00:28:18.934Z,95.30
2018-07-13T00:29:18.916Z,98.70
2018-07-13T00:30:18.908Z,100.80
2018-07-13T00:31:18.890Z,111.70
2018-07-13T00:32:18.881Z,85.60
2018-07-13T00:33:18.874Z,97.00
2018-07-13T00:34:18.886Z,139.50
2018-07-13T00:35:18.853Z,99.60
2018-07-13T00:36:18.831Z,109.40
2018-07-13T00:37:18.823Z,91.50
2018-07-13T00:38:18.811Z,100.30
2018-07-13T00:39:18.801Z,84.60
2018-07-13T00:40:18.816Z,116.10
2018-07-13T00:41:18.782Z,103.80
2018-07-13T00:42:18.775Z,135.60
2018-07-13T00:43:18.764Z,110.60
2018-07-13T00:44:18.744Z,102.90
2018-07-13T00:45:18.755Z,105.10
2018-07-13T00:46:18.745Z,128.80
2018-07-13T00:47:18.719Z,124.10
2018-07-13T00:48:18.700Z,135.00
2018-07-13T00:49:18.691Z,100.40
2018-07-13T00:50:18.703Z,141.40
2018-07-13T00:51:18.669Z,135.70
2018-07-13T00:52:18.665Z,136.50
2018-07-13T00:53:18.667Z,101.80
2018-07-13T00:54:18.646Z,100.00
2018-07-13T00:55:18.659Z,88.70
2018-07-13T00:56:18.616Z,80.60
2018-07-13T00:57:18.605Z,103.10
2018-07-13T00:58:18.593Z,95.10
2018-07-13T00:59:18.579Z,96.20
2018-07-13T01:00:18.579Z,98.90
2018-07-13T01:01:18.585Z,89.20
2018-07-13T01:02:18.570Z,98.80
2018-07-13T01:03:18.537Z,113.90
2018-07-13T01:04:18.536Z,133.80
2018-07-13T01:05:18.534Z,106.20
2018-07-13T01:06:18.514Z,105.80
2018-07-13T01:07:18.515Z,113.40
2018-07-13T01:08:18.482Z,121.40
2018-07-13T01:09:18.485Z,111.40
2018-07-13T01:10:18.463Z,89.40
2018-07-13T01:11:18.478Z,97.00
2018-07-13T01:12:18.445Z,176.50
2018-07-13T01:13:18.434Z,517.20
2018-07-13T01:14:18.421Z,212.70
2018-07-13T01:15:18.415Z,214.10
2018-07-13T01:16:18.394Z,82.30
2018-07-13T01:17:18.404Z,109.60
2018-07-13T01:18:18.376Z,114.90
2018-07-13T01:19:18.370Z,115.70
2018-07-13T01:20:18.350Z,102.10
2018-07-13T01:21:18.342Z,98.30
2018-07-13T01:22:18.360Z,103.20
2018-07-13T01:23:18.318Z,101.10
2018-07-13T01:24:18.314Z,90.60
2018-07-13T01:25:18.313Z,130.60
2018-07-13T01:26:18.290Z,122.20
2018-07-13T01:27:18.282Z,117.20
2018-07-13T01:28:18.269Z,106.60
2018-07-13T01:29:18.255Z,114.60
2018-07-13T01:30:18.257Z,120.30
2018-07-13T01:31:18.253Z,91.90
2018-07-13T01:32:18.250Z,129.00
2018-07-13T01:33:18.262Z,89.00
2018-07-13T01:34:18.204Z,112.50
2018-07-13T01:35:18.188Z,102.00
2018-07-13T01:36:18.187Z,100.50
2018-07-13T01:37:18.171Z,101.00
2018-07-13T01:38:18.161Z,102.00
2018-07-13T01:39:18.156Z,112.60
2018-07-13T01:40:18.132Z,117.30
2018-07-13T01:41:18.124Z,115.30
2018-07-13T01:42:18.113Z,84.00
2018-07-13T01:43:18.130Z,125.10
2018-07-13T01:44:18.096Z,101.90
2018-07-13T01:45:18.084Z,125.30
2018-07-13T01:46:18.072Z,104.60
2018-07-13T01:47:18.063Z,141.50
2018-07-13T01:48:18.046Z,118.20
2018-07-13T01:49:18.060Z,91.50
2018-07-13T01:50:18.031Z,187.40
2018-07-13T01:51:18.025Z,105.80
2018-07-13T01:52:18.003Z,111.30
2018-07-13T01:53:17.993Z,128.90
2018-07-13T01:54:18.012Z,110.00
2018-07-13T01:55:17.971Z,128.00
2018-07-13T01:56:17.966Z,127.30
2018-07-13T01:57:17.953Z,90.90
2018-07-13T01:58:17.942Z,92.90
2018-07-13T01:59:17.937Z,105.90
2018-07-13T02:00:17.918Z,94.00
2018-07-13T02:01:17.907Z,97.20
2018-07-13T02:02:17.914Z,151.30
2018-07-13T02:03:17.892Z,396.60
2018-07-13T02:04:17.879Z,117.80
2018-07-13T02:05:17.897Z,96.10
2018-07-13T02:06:17.852Z,77.50
2018-07-13T02:07:17.840Z,99.80
2018-07-13T02:08:17.838Z,123.80
2018-07-13T02:09:17.822Z,120.40
2018-07-13T02:10:17.818Z,110.90
2018-07-13T02:11:17.802Z,110.70
2018-07-13T02:12:17.789Z,148.10
2018-07-13T02:13:17.791Z,93.30
2018-07-13T02:14:17.766Z,112.40
2018-07-13T02:15:17.776Z,115.10
2018-07-13T02:16:17.748Z,91.70
2018-07-13T02:17:17.734Z,110.30
2018-07-13T02:18:17.726Z,114.40
2018-07-13T02:19:17.716Z,124.60
2018-07-13T02:20:17.721Z,152.40
2018-07-13T02:21:17.689Z,100.80
2018-07-13T02:22:17.680Z,114.00
2018-07-13T02:23:17.672Z,113.30
2018-07-13T02:24:17.655Z,138.30
2018-07-13T02:25:17.670Z,110.90
2018-07-13T02:26:17.634Z,147.80
2018-07-13T02:27:17.623Z,143.00
2018-07-13T02:28:17.617Z,120.70
2018-07-13T02:29:17.603Z,148.30
2018-07-13T02:30:17.627Z,106.70
2018-07-13T02:31:17.619Z,91.70
2018-07-13T02:32:17.568Z,98.70
2018-07-13T02:33:17.589Z,94.50
2018-07-13T02:34:17.549Z,109.90
2018-07-13T02:35:17.535Z,128.60
2018-07-13T02:36:17.543Z,120.90
2018-07-13T02:37:17.516Z,100.10
2018-07-13T02:38:17.503Z,105.50
2018-07-13T02:39:17.491Z,89.30
2018-07-13T02:40:17.486Z,103.20
2018-07-13T02:41:17.491Z,93.60
2018-07-13T02:42:17.463Z,130.80
2018-07-13T02:43:17.453Z,138.90
2018-07-13T02:44:17.435Z,131.20
2018-07-13T02:45:17.427Z,176.00
2018-07-13T02:46:17.451Z,565.10
2018-07-13T02:47:17.405Z,115.70
2018-07-13T02:48:17.405Z,85.30
2018-07-13T02:49:17.387Z,102.80
2018-07-13T02:50:17.377Z,88.90
2018-07-13T02:51:17.366Z,95.60
2018-07-13T02:52:17.359Z,171.70
2018-07-13T02:53:17.349Z,352.00
2018-07-13T02:54:17.335Z,92.50
2018-07-13T02:55:17.329Z,86.40
2018-07-13T02:56:17.315Z,110.10
2018-07-13T02:57:17.331Z,133.00
2018-07-13T02:58:17.287Z,137.10
2018-07-13T02:59:17.272Z,109.70
2018-07-13T03:00:17.270Z,119.40
2018-07-13T03:01:17.291Z,149.90
2018-07-13T03:02:17.273Z,192.90
2018-07-13T03:03:17.241Z,447.70
2018-07-13T03:04:17.230Z,99.20
2018-07-13T03:05:17.213Z,113.20
2018-07-13T03:06:17.222Z,162.60
2018-07-13T03:07:17.187Z,142.30
2018-07-13T03:08:17.192Z,114.10
2018-07-13T03:09:17.172Z,94.60
2018-07-13T03:10:17.160Z,92.40
2018-07-13T03:11:17.144Z,107.80
2018-07-13T03:12:17.140Z,171.80
2018-07-13T03:13:17.146Z,180.10
2018-07-13T03:14:17.117Z,94.10
2018-07-13T03:15:17.130Z,88.90
2018-07-13T03:16:17.101Z,98.30
2018-07-13T03:17:17.110Z,93.90
2018-07-13T03:18:17.098Z,103.10
2018-07-13T03:19:17.071Z,124.60
2018-07-13T03:20:17.055Z,145.10
2018-07-13T03:21:17.045Z,124.00
2018-07-13T03:22:17.105Z,116.50
2018-07-13T03:23:17.028Z,100.00
2018-07-13T03:24:17.031Z,90.70
2018-07-13T03:25:17.000Z,86.70
2018-07-13T03:26:16.997Z,115.70
2018-07-13T03:27:16.982Z,108.30
2018-07-13T03:28:16.961Z,177.20
2018-07-13T03:29:16.972Z,221.10
2018-07-13T03:30:16.944Z,291.20
2018-07-13T03:31:16.935Z,100.40
2018-07-13T03:32:16.948Z,143.40
2018-07-13T03:33:16.913Z,845.90
2018-07-13T03:34:16.947Z,120.80
2018-07-13T03:35:16.892Z,89.80
2018-07-13T03:36:16.885Z,84.90
2018-07-13T03:37:16.884Z,99.90
2018-07-13T03:38:16.924Z,103.00
2018-07-13T03:39:16.860Z,101.70
2018-07-13T03:40:16.886Z,107.40
2018-07-13T03:41:16.830Z,98.20
2018-07-13T03:42:16.820Z,89.60
2018-07-13T03:43:16.803Z,110.00
2018-07-13T03:44:16.797Z,103.60
2018-07-13T03:45:16.805Z,114.50
2018-07-13T03:46:16.778Z,119.40
2018-07-13T03:47:16.764Z,521.60
2018-07-13T03:48:16.763Z,224.70
2018-07-13T03:49:16.743Z,126.50
2018-07-13T03:50:16.755Z,142.50
2018-07-13T03:51:16.721Z,150.90
2018-07-13T03:52:16.712Z,169.20
2018-07-13T03:53:16.700Z,112.60
2018-07-13T03:54:16.790Z,104.90
2018-07-13T03:55:16.677Z,87.70
2018-07-13T03:56:16.669Z,101.70
2018-07-13T03:57:16.655Z,98.70
2018-07-13T03:58:16.666Z,115.00
2018-07-13T03:59:16.638Z,136.00
2018-07-13T04:00:16.621Z,167.80
2018-07-13T04:01:16.630Z,91.90
2018-07-13T04:02:16.597Z,110.10
2018-07-13T04:03:16.589Z,103.60
2018-07-13T04:04:16.585Z,100.00
2018-07-13T04:05:16.574Z,88.60
2018-07-13T04:06:16.588Z,99.10
2018-07-13T04:07:16.550Z,91.50
2018-07-13T04:08:16.543Z,91.30
2018-07-13T04:09:16.528Z,97.20
2018-07-13T04:10:16.525Z,90.00
2018-07-13T04:11:16.510Z,132.30
2018-07-13T04:12:16.496Z,98.30
2018-07-13T04:13:16.488Z,89.80
2018-07-13T04:14:16.467Z,105.00
2018-07-13T04:15:16.482Z,114.30
2018-07-13T04:16:16.455Z,108.90
2018-07-13T04:17:16.475Z,129.70
2018-07-13T04:18:16.434Z,104.50
2018-07-13T04:19:16.418Z,112.50
2018-07-13T04:20:16.465Z,116.10
2018-07-13T04:21:16.415Z,105.90
2018-07-13T04:22:16.414Z,103.70
2018-07-13T04:23:16.375Z,108.10
2018-07-13T04:24:16.378Z,108.50
2018-07-13T04:25:16.378Z,97.60
2018-07-13T04:26:16.363Z,123.60
2018-07-13T04:27:16.333Z,142.20
2018-07-13T04:28:16.325Z,171.90
2018-07-13T04:29:16.304Z,104.20
2018-07-13T04:30:16.300Z,122.10
2018-07-13T04:31:16.289Z,114.80
2018-07-13T04:32:16.273Z,126.40
2018-07-13T04:33:16.294Z,105.70
2018-07-13T04:34:16.272Z,126.90
2018-07-13T04:35:16.241Z,110.30
2018-07-13T04:36:16.233Z,99.90
2018-07-13T04:37:16.228Z,112.90
2018-07-13T04:38:16.272Z,117.00
2018-07-13T04:39:16.238Z,134.30
2018-07-13T04:40:16.188Z,92.40
2018-07-13T04:41:16.188Z,107.80
2018-07-13T04:42:16.174Z,90.00
2018-07-13T04:43:16.154Z,102.40
2018-07-13T04:44:16.146Z,102.30
2018-07-13T04:45:16.136Z,105.20
2018-07-13T04:46:16.118Z,150.70
2018-07-13T04:47:16.145Z,174.90
2018-07-13T04:48:16.120Z,126.20
2018-07-13T04:49:16.119Z,85.50
2018-07-13T04:50:16.198Z,119.30
2018-07-13T04:51:16.070Z,77.70
2018-07-13T04:52:16.057Z,101.20
2018-07-13T04:53:16.056Z,128.70
2018-07-13T04:54:16.060Z,92.20
2018-07-13T04:55:16.025Z,101.30
2018-07-13T04:56:16.024Z,117.50
2018-07-13T04:57:16.008Z,93.50
2018-07-13T04:58:15.999Z,104.30
2018-07-13T04:59:15.996Z,92.10
2018-07-13T05:00:15.987Z,109.60
2018-07-13T05:01:15.964Z,111.30
2018-07-13T05:02:15.977Z,107.20
2018-07-13T05:03:15.944Z,111.70
2018-07-13T05:04:15.931Z,97.60
2018-07-13T05:05:15.931Z,137.10
2018-07-13T05:06:15.964Z,102.20
2018-07-13T05:07:15.893Z,106.70
2018-07-13T05:08:15.894Z,105.30
2018-07-13T05:09:15.876Z,94.80
2018-07-13T05:10:15.916Z,113.00
2018-07-13T05:11:15.886Z,97.10
2018-07-13T05:12:15.839Z,155.80
2018-07-13T05:13:15.841Z,76.20
2018-07-13T05:14:15.818Z,86.20
2018-07-13T05:15:15.824Z,98.60
2018-07-13T05:16:15.815Z,73.40
2018-07-13T05:17:15.790Z,71.00
2018-07-13T05:18:15.773Z,80.00
2018-07-13T05:19:15.764Z,80.40
2018-07-13T05:20:15.763Z,58.90
2018-07-13T05:21:15.781Z,82.10
2018-07-13T05:22:15.741Z,91.90
2018-07-13T05:23:15.746Z,58.50
2018-07-13T05:24:15.722Z,84.20
2018-07-13T05:25:15.707Z,84.40
2018-07-13T05:26:15.756Z,80.20
2018-07-13T05:27:15.680Z,80.90
2018-07-13T05:28:15.670Z,73.50
2018-07-13T05:29:15.675Z,70.60
2018-07-13T05:30:15.650Z,71.20
2018-07-13T05:31:15.647Z,62.70
2018-07-13T05:32:15.647Z,87.30
2018-07-13T05:33:15.629Z,87.00
2018-07-13T05:34:15.632Z,111.80
2018-07-13T05:35:15.613Z,61.90
2018-07-13T05:36:15.581Z,81.20
2018-07-13T05:37:15.591Z,84.30
2018-07-13T05:38:15.569Z,76.40
2018-07-13T05:39:15.563Z,105.00
2018-07-13T05:40:15.556Z,131.40
2018-07-13T05:41:15.533Z,103.80
2018-07-13T05:42:15.551Z,133.30
2018-07-13T05:43:15.518Z,134.30
2018-07-13T05:44:15.530Z,116.10
2018-07-13T05:45:15.482Z,101.30
2018-07-13T05:46:15.470Z,106.20
2018-07-13T05:47:15.463Z,85.50
2018-07-13T05:48:15.456Z,123.80
2018-07-13T05:49:15.445Z,160.60
2018-07-13T05:50:15.441Z,98.90
2018-07-13T05:51:15.426Z,93.60
2018-07-13T05:52:15.410Z,100.90
2018-07-13T05:53:15.430Z,71.30
2018-07-13T05:54:15.414Z,99.20
2018-07-13T05:55:15.377Z,93.70
2018-07-13T05:56:15.369Z,82.70
2018-07-13T05:57:15.353Z,66.10
2018-07-13T05:58:15.367Z,76.30
2018-07-13T05:59:15.331Z,58.10
2018-07-13T06:00:15.323Z,55.60
2018-07-13T06:01:15.317Z,71.70
2018-07-13T06:02:15.317Z,47.30
2018-07-13T06:03:15.291Z,49.90
2018-07-13T06:04:15.296Z,45.00
2018-07-13T06:05:15.278Z,78.20
2018-07-13T06:06:15.272Z,32.90
2018-07-13T06:07:15.249Z,36.70
2018-07-13T06:08:15.234Z,52.40
2018-07-13T06:09:15.240Z,39.30
2018-07-13T06:10:15.216Z,41.60
2018-07-13T06:11:15.203Z,45.60
2018-07-13T06:12:15.200Z,42.40
2018-07-13T06:13:15.230Z,39.50
2018-07-13T06:14:15.225Z,43.60
2018-07-13T06:15:15.162Z,46.10
2018-07-13T06:16:15.158Z,42.20
2018-07-13T06:17:15.151Z,42.20
2018-07-13T06:18:15.126Z,45.40
2018-07-13T06:19:15.133Z,52.30
2018-07-13T06:20:15.147Z,50.70
2018-07-13T06:21:15.113Z,41.90
2018-07-13T06:22:15.085Z,50.50
2018-07-13T06:23:15.075Z,47.90
2018-07-13T06:24:15.082Z,46.00
2018-07-13T06:25:15.081Z,37.90
2018-07-13T06:26:15.065Z,39.00
2018-07-13T06:27:15.040Z,40.80
2018-07-13T06:28:15.022Z,31.50
2018-07-13T06:29:15.013Z,39.10
2018-07-13T06:30:15.040Z,37.10
2018-07-13T06:31:15.001Z,33.60
2018-07-13T06:32:14.982Z,39.60
2018-07-13T06:33:14.977Z,38.10
2018-07-13T06:34:14.964Z,41.80
2018-07-13T06:35:14.955Z,32.20
2018-07-13T06:36:14.935Z,28.60
2018-07-13T06:37:14.948Z,30.20
2018-07-13T06:38:14.919Z,35.60
2018-07-13T06:39:14.912Z,34.40
2018-07-13T06:40:14.893Z,34.60
2018-07-13T06:41:14.901Z,28.80
2018-07-13T06:42:14.892Z,38.00
2018-07-13T06:43:14.860Z,37.30
2018-07-13T06:44:14.869Z,31.50
2018-07-13T06:45:14.843Z,26.10
2018-07-13T06:46:14.861Z,29.70
2018-07-13T06:47:14.851Z,26.30
2018-07-13T06:48:14.817Z,32.10
2018-07-13T06:49:14.794Z,35.20
2018-07-13T06:50:14.789Z,33.40
2018-07-13T06:51:14.810Z,35.50
2018-07-13T06:52:14.766Z,29.00
2018-07-13T06:53:14.758Z,31.40
2018-07-13T06:54:14.749Z,27.20
2018-07-13T06:55:14.735Z,31.80
2018-07-13T06:56:14.723Z,28.80
2018-07-13T06:57:14.717Z,29.00
2018-07-13T06:58:14.719Z,30.40
2018-07-13T06:59:14.695Z,27.10
2018-07-13T07:00:14.679Z,27.90
2018-07-13T07:01:14.666Z,26.70
2018-07-13T07:02:14.674Z,32.60
2018-07-13T07:03:14.648Z,32.80
2018-07-13T07:04:14.641Z,30.10
2018-07-13T07:05:14.632Z,27.50
2018-07-13T07:06:14.620Z,29.40
2018-07-13T07:07:14.634Z,32.30
2018-07-13T07:08:14.658Z,30.50
2018-07-13T07:09:14.636Z,26.50
2018-07-13T07:10:14.584Z,28.90
2018-07-13T07:11:14.567Z,28.00
2018-07-13T07:12:14.556Z,32.30
2018-07-13T07:13:14.555Z,32.70
2018-07-13T07:14:14.559Z,35.30
2018-07-13T07:15:14.520Z,27.50
2018-07-13T07:16:14.512Z,27.50
2018-07-13T07:17:14.511Z,25.20
2018-07-13T07:18:14.515Z,29.20
2018-07-13T07:19:14.479Z,30.30
2018-07-13T07:20:14.467Z,27.20
2018-07-13T07:21:14.470Z,25.10
2018-07-13T07:22:14.466Z,25.20
2018-07-13T07:23:14.461Z,27.50
2018-07-13T07:24:14.428Z,25.00
2018-07-13T07:25:14.418Z,21.60
2018-07-13T07:26:14.408Z,23.90
2018-07-13T07:27:14.393Z,19.70
2018-07-13T07:28:14.409Z,24.00
2018-07-13T07:29:14.386Z,24.60
2018-07-13T07:30:14.369Z,22.10
2018-07-13T07:31:14.352Z,17.60
2018-07-13T07:32:14.342Z,20.00
2018-07-13T07:33:14.352Z,19.50
2018-07-13T07:34:14.315Z,18.80
2018-07-13T07:35:14.305Z,18.20
2018-07-13T07:36:14.306Z,21.40
2018-07-13T07:37:14.289Z,17.60
2018-07-13T07:38:14.321Z,19.80
2018-07-13T07:39:14.265Z,20.80
2018-07-13T07:40:14.260Z,21.80
2018-07-13T07:41:14.242Z,20.50
2018-07-13T07:42:14.235Z,23.80
2018-07-13T07:43:14.222Z,20.00
2018-07-13T07:44:14.211Z,23.80
2018-07-13T07:45:14.197Z,18.80
2018-07-13T07:46:14.195Z,24.40
2018-07-13T07:47:14.224Z,17.00
2018-07-13T07:48:14.170Z,17.80
2018-07-13T07:49:14.206Z,24.40
2018-07-13T07:50:14.145Z,22.40
2018-07-13T07:51:14.145Z,16.40
2018-07-13T07:52:14.131Z,18.70
2018-07-13T07:53:14.130Z,21.10
2018-07-13T07:54:14.182Z,18.40
2018-07-13T07:55:14.112Z,18.10
2018-07-13T07:56:14.107Z,19.50
2018-07-13T07:57:14.070Z,15.20
2018-07-13T07:58:14.075Z,15.40
2018-07-13T07:59:14.070Z,11.50
2018-07-13T08:00:14.067Z,13.80
2018-07-13T08:01:14.042Z,14.80
2018-07-13T08:02:14.018Z,14.90
2018-07-13T08:03:14.029Z,16.70
2018-07-13T08:04:14.000Z,14.10
2018-07-13T08:05:14.007Z,12.60
2018-07-13T08:06:14.062Z,12.70
2018-07-13T08:07:14.232Z,13.40
2018-07-13T08:08:13.960Z,14.40
2018-07-13T08:09:13.940Z,12.80
2018-07-13T08:10:13.941Z,14.80
2018-07-13T08:11:13.962Z,13.90
2018-07-13T08:12:13.919Z,13.90
2018-07-13T08:13:13.902Z,15.00
2018-07-13T08:14:14.181Z,16.80
2018-07-13T08:15:13.907Z,16.10
2018-07-13T08:16:13.876Z,12.20
2018-07-13T08:17:13.858Z,14.10
2018-07-13T08:18:13.850Z,13.70
2018-07-13T08:19:13.834Z,13.80
2018-07-13T08:20:13.849Z,16.20
2018-07-13T08:21:13.807Z,14.20
2018-07-13T08:22:13.797Z,11.30
2018-07-13T08:23:13.788Z,11.70
2018-07-13T08:24:13.783Z,12.80
2018-07-13T08:25:13.773Z,12.30
2018-07-13T08:26:13.794Z,12.40
2018-07-13T08:27:13.749Z,10.80
2018-07-13T08:28:13.737Z,10.90
2018-07-13T08:29:13.722Z,11.40
2018-07-13T08:30:13.717Z,10.50
2018-07-13T08:31:13.727Z,14.80
2018-07-13T08:32:13.709Z,11.00
2018-07-13T08:33:13.692Z,12.10
2018-07-13T08:34:13.673Z,11.70
2018-07-13T08:35:13.664Z,12.50
2018-07-13T08:36:13.672Z,15.50
2018-07-13T08:37:13.660Z,10.80
2018-07-13T08:38:13.636Z,8.30
2018-07-13T08:39:13.620Z,9.00
2018-07-13T08:40:13.625Z,10.90
2018-07-13T08:41:13.647Z,10.00
2018-07-13T08:42:13.602Z,9.70
2018-07-13T08:43:13.576Z,10.10
2018-07-13T08:44:13.567Z,8.60
2018-07-13T08:45:13.560Z,10.50
2018-07-13T08:46:13.551Z,11.00
2018-07-13T08:47:13.553Z,10.80
2018-07-13T08:48:13.534Z,10.00
2018-07-13T08:49:13.522Z,8.80
2018-07-13T08:50:13.561Z,6.60
2018-07-13T08:51:13.511Z,8.40
2018-07-13T08:52:13.536Z,8.90
2018-07-13T08:53:13.495Z,7.70
2018-07-13T08:54:13.478Z,8.50
2018-07-13T08:55:13.454Z,9.00
2018-07-13T08:56:13.569Z,10.00
2018-07-13T08:57:13.436Z,8.40
2018-07-13T08:58:13.446Z,8.40
2018-07-13T08:59:13.416Z,9.40
2018-07-13T09:00:13.408Z,8.10
2018-07-13T09:01:13.386Z,8.10
2018-07-13T09:02:13.385Z,7.20
2018-07-13T09:03:13.391Z,9.90
2018-07-13T09:04:13.413Z,7.30
2018-07-13T09:05:13.364Z,7.40
2018-07-13T09:06:13.343Z,6.80
2018-07-13T09:07:13.342Z,7.70
2018-07-13T09:08:13.349Z,7.80
2018-07-13T09:09:13.314Z,8.70
2018-07-13T09:10:13.302Z,8.10
2018-07-13T09:11:13.291Z,8.30
2018-07-13T09:12:13.278Z,6.80
2018-07-13T09:13:13.272Z,7.60
2018-07-13T09:14:13.281Z,9.70
2018-07-13T09:15:13.305Z,9.90
2018-07-13T09:16:13.239Z,7.80
2018-07-13T09:17:13.232Z,9.70
2018-07-13T09:18:13.228Z,8.50
2018-07-13T09:19:13.234Z,9.10
2018-07-13T09:20:13.211Z,8.70
2018-07-13T09:21:13.195Z,8.10
2018-07-13T09:22:13.181Z,8.20
2018-07-13T09:23:13.169Z,9.00
2018-07-13T09:24:13.204Z,8.30
2018-07-13T09:25:13.167Z,8.20
2018-07-13T09:26:13.139Z,9.20
2018-07-13T09:27:13.147Z,6.60
2018-07-13T09:28:13.121Z,7.80
2018-07-13T09:29:13.149Z,9.50
2018-07-13T09:30:13.143Z,8.60
2018-07-13T09:31:13.143Z,9.30
2018-07-13T09:32:13.080Z,7.80
2018-07-13T09:33:13.077Z,10.20
2018-07-13T09:34:13.065Z,7.80
2018-07-13T09:35:13.075Z,8.50
2018-07-13T09:36:13.077Z,7.60
2018-07-13T09:37:13.029Z,7.50
2018-07-13T09:38:13.032Z,7.50
2018-07-13T09:39:13.013Z,7.10
2018-07-13T09:40:13.009Z,8.80
2018-07-13T09:41:13.025Z,8.10
2018-07-13T09:42:12.987Z,6.20
2018-07-13T09:43:12.975Z,4.70
2018-07-13T09:44:12.961Z,7.00
2018-07-13T09:45:12.952Z,6.40
2018-07-13T09:46:12.943Z,5.20
2018-07-13T09:47:12.949Z,6.60
2018-07-13T09:48:12.924Z,7.50
2018-07-13T09:49:12.921Z,6.60
2018-07-13T09:50:12.900Z,6.70
2018-07-13T09:51:12.896Z,8.40
2018-07-13T09:52:12.907Z,6.60
2018-07-13T09:53:12.874Z,6.90
2018-07-13T09:54:12.980Z,8.80
2018-07-13T09:55:12.858Z,7.00
2018-07-13T09:56:12.845Z,6.90
2018-07-13T09:57:12.827Z,7.50
2018-07-13T09:58:12.836Z,9.80
2018-07-13T09:59:12.808Z,7.10
2018-07-13T10:00:12.808Z,8.60
2018-07-13T10:01:12.791Z,7.90
2018-07-13T10:02:12.780Z,7.60
2018-07-13T10:03:12.789Z,7.80
2018-07-13T10:04:12.754Z,6.30
2018-07-13T10:05:12.742Z,5.80
2018-07-13T10:06:12.766Z,4.60
2018-07-13T10:07:12.724Z,6.50
2018-07-13T10:08:12.752Z,7.30
2018-07-13T10:09:12.700Z,5.50
2018-07-13T10:10:12.695Z,6.80
2018-07-13T10:11:12.679Z,6.60
2018-07-13T10:12:12.669Z,7.60
2018-07-13T10:13:12.661Z,7.50
2018-07-13T10:14:12.669Z,7.80
2018-07-13T10:15:12.646Z,7.90
2018-07-13T10:16:12.628Z,9.40
2018-07-13T10:17:12.645Z,8.00
2018-07-13T10:18:12.623Z,7.50
2018-07-13T10:19:12.667Z,7.00
2018-07-13T10:20:12.662Z,6.40
2018-07-13T10:21:12.578Z,6.50
2018-07-13T10:22:12.561Z,6.40
2018-07-13T10:23:12.555Z,8.00
2018-07-13T10:24:12.550Z,9.20
2018-07-13T10:25:12.557Z,6.00
2018-07-13T10:26:12.527Z,7.10
2018-07-13T10:27:12.557Z,7.50
2018-07-13T10:28:12.500Z,7.80
2018-07-13T10:29:12.514Z,8.10
2018-07-13T10:30:12.496Z,8.40
2018-07-13T10:31:12.469Z,6.80
2018-07-13T10:32:12.512Z,8.20
2018-07-13T10:33:12.452Z,7.20
2018-07-13T10:34:12.466Z,7.20
2018-07-13T10:35:12.462Z,8.90
2018-07-13T10:36:12.424Z,7.90
2018-07-13T10:37:12.403Z,7.90
2018-07-13T10:38:12.410Z,6.20
2018-07-13T10:39:12.417Z,7.20
2018-07-13T10:40:12.375Z,6.30
2018-07-13T10:41:12.382Z,7.60
2018-07-13T10:42:12.352Z,7.70
2018-07-13T10:43:12.351Z,5.00
2018-07-13T10:44:12.337Z,5.00
2018-07-13T10:45:12.332Z,5.40
2018-07-13T10:46:12.360Z,6.70
2018-07-13T10:47:12.306Z,4.80
2018-07-13T10:48:12.299Z,5.40
2018-07-13T10:49:12.307Z,6.20
2018-07-13T10:50:12.271Z,6.80
2018-07-13T10:51:12.263Z,5.00
2018-07-13T10:52:12.273Z,7.60
2018-07-13T10:53:12.257Z,7.60
2018-07-13T10:54:12.229Z,6.40
2018-07-13T10:55:12.223Z,5.00
2018-07-13T10:56:12.213Z,4.80
2018-07-13T10:57:12.235Z,4.90
2018-07-13T10:58:12.212Z,6.30
2018-07-13T10:59:12.183Z,5.90
2018-07-13T11:00:12.192Z,5.80
2018-07-13T11:01:12.157Z,5.60
2018-07-13T11:02:12.146Z,4.40
2018-07-13T11:03:12.156Z,4.90
2018-07-13T11:04:12.147Z,3.50
2018-07-13T11:05:12.123Z,5.30
2018-07-13T11:06:12.113Z,4.90
2018-07-13T11:07:12.103Z,5.60
2018-07-13T11:08:12.107Z,5.30
2018-07-13T11:09:12.069Z,3.90
2018-07-13T11:10:12.067Z,3.90
2018-07-13T11:11:12.053Z,6.10
2018-07-13T11:12:12.042Z,4.60
2018-07-13T11:13:12.075Z,4.40
2018-07-13T11:14:12.027Z,4.20
2018-07-13T11:15:12.009Z,4.90
2018-07-13T11:16:12.001Z,3.50
2018-07-13T11:17:11.997Z,2.90
2018-07-13T11:18:11.991Z,4.80
2018-07-13T11:19:11.988Z,4.90
2018-07-13T11:20:11.960Z,4.60
2018-07-13T11:21:11.966Z,5.10
2018-07-13T11:22:11.940Z,4.20
2018-07-13T11:23:11.929Z,4.70
2018-07-13T11:24:11.958Z,3.60
2018-07-13T11:25:11.915Z,4.20
2018-07-13T11:26:11.897Z,5.90
2018-07-13T11:27:11.892Z,3.30
2018-07-13T11:28:11.902Z,4.00
2018-07-13T11:29:11.882Z,3.50
2018-07-13T11:30:11.910Z,4.80
2018-07-13T11:31:11.857Z,4.80
2018-07-13T11:32:11.856Z,5.30
2018-07-13T11:33:11.836Z,4.50
2018-07-13T11:34:11.829Z,3.80
2018-07-13T11:35:11.848Z,3.20
2018-07-13T11:36:11.814Z,5.10
2018-07-13T11:37:12.027Z,4.60
2018-07-13T11:38:11.808Z,5.20
2018-07-13T11:39:11.808Z,5.70
2018-07-13T11:40:11.779Z,5.20
2018-07-13T11:41:11.791Z,4.20
2018-07-13T11:42:11.771Z,5.40
2018-07-13T11:43:11.773Z,3.10
2018-07-13T11:44:11.762Z,4.10
2018-07-13T11:45:11.743Z,5.80
2018-07-13T11:46:11.766Z,3.10
2018-07-13T11:47:11.723Z,4.60
2018-07-13T11:48:11.742Z,4.80
2018-07-13T11:49:11.713Z,3.10
2018-07-13T11:50:11.718Z,3.30
2018-07-13T11:51:11.694Z,3.10
2018-07-13T11:52:11.730Z,4.30
2018-07-13T11:53:11.698Z,3.10
2018-07-13T11:54:11.678Z,2.90
2018-07-13T11:55:11.672Z,2.80
2018-07-13T11:56:11.658Z,3.20
2018-07-13T11:57:11.838Z,3.20
2018-07-13T11:58:11.654Z,3.20
2018-07-13T11:59:11.659Z,3.50
2018-07-13T12:00:11.654Z,2.80
2018-07-13T12:01:11.622Z,3.50
2018-07-13T12:02:11.610Z,3.40
2018-07-13T12:03:11.623Z,4.40
2018-07-13T12:04:11.600Z,2.60
2018-07-13T12:05:11.602Z,2.90
2018-07-13T12:06:11.575Z,3.30
2018-07-13T12:07:11.581Z,3.40
2018-07-13T12:08:11.594Z,3.20
2018-07-13T12:09:11.565Z,3.20
2018-07-13T12:10:11.549Z,3.20
2018-07-13T12:11:11.543Z,3.40
2018-07-13T12:12:11.531Z,3.40
2018-07-13T12:13:11.521Z,2.80
2018-07-13T12:14:11.535Z,2.70
2018-07-13T12:15:11.519Z,2.70
2018-07-13T12:16:11.506Z,2.70
2018-07-13T12:17:11.520Z,3.00
2018-07-13T12:18:11.485Z,3.10
2018-07-13T12:19:11.504Z,2.80
2018-07-13T12:20:11.478Z,3.90
2018-07-13T12:21:11.467Z,3.20
2018-07-13T12:22:11.460Z,4.40
2018-07-13T12:23:11.500Z,4.50
2018-07-13T12:24:11.438Z,2.90
2018-07-13T12:25:11.452Z,3.70
2018-07-13T12:26:11.430Z,3.10
2018-07-13T12:27:11.425Z,2.90
2018-07-13T12:28:11.450Z,3.30
2018-07-13T12:29:11.408Z,3.00
2018-07-13T12:30:11.433Z,3.80
2018-07-13T12:31:11.390Z,3.30
2018-07-13T12:32:11.398Z,3.20
2018-07-13T12:33:11.416Z,3.10
2018-07-13T12:34:11.371Z,3.30
2018-07-13T12:35:11.395Z,3.60
2018-07-13T12:36:11.351Z,2.90
2018-07-13T12:37:11.352Z,3.70
2018-07-13T12:38:11.342Z,3.60
2018-07-13T12:39:11.331Z,3.20
2018-07-13T12:40:11.343Z,3.00
2018-07-13T12:41:11.361Z,3.40
2018-07-13T12:42:11.314Z,3.00
2018-07-13T12:43:11.328Z,2.90
2018-07-13T12:44:11.304Z,3.10
2018-07-13T12:45:11.288Z,3.30
2018-07-13T12:46:11.416Z,2.90
2018-07-13T12:47:11.277Z,3.50
2018-07-13T12:48:11.276Z,3.20
2018-07-13T12:49:11.267Z,2.70
2018-07-13T12:50:11.271Z,3.60
2018-07-13T12:51:11.245Z,3.20
2018-07-13T12:52:11.265Z,2.80
2018-07-13T12:53:11.232Z,2.60